Time;durP1;ratioP1;P1;durP2;ratioP2;P2;SDS_P1;SDS_P2;PMS_P1;PMS_P2;Temp;Humidity;BMP_temperature;BMP_pressure;BME280_temperature;BME280_humidity;BME280_pressure;Samples;Min_cycle;Max_cycle;Signal;HPM_P1;HPM_P2
2022/09/26 00:01:13;;;;;;;7.80;4.60;;;;;;;10.74;87.39;100890.34;5050306;28;20048;-75
2022/09/26 00:03:42;;;;;;;7.28;4.78;;;;;;;10.82;86.20;100883.56;5046589;28;20037;-77
2022/09/26 00:06:07;;;;;;;;;;;;;;;10.98;86.52;100883.13;5042340;28;20070;-76
2022/09/26 00:08:34;;;;;;;7.38;4.45;;;;;;;10.83;85.99;100874.00;5041515;28;19913;-77
2022/09/26 00:11:02;;;;;;;5.75;4.75;;;;;;;10.79;86.58;100867.44;5042381;28;20112;-76
2022/09/26 00:13:31;;;;;;;7.43;3.90;;;;;;;10.86;85.91;100863.38;5047944;28;20037;-76
2022/09/26 00:15:57;;;;;;;7.10;4.88;;;;;;;10.88;86.80;100856.28;5049879;28;20036;-77
2022/09/26 00:18:23;;;;;;;6.35;4.40;;;;;;;10.84;86.35;100858.31;5046503;28;20036;-76
2022/09/26 00:20:49;;;;;;;7.05;4.97;;;;;;;10.73;86.46;100847.19;5049017;28;20024;-77
2022/09/26 00:23:15;;;;;;;7.32;4.03;;;;;;;10.79;87.30;100847.50;5049811;28;20047;-77
2022/09/26 00:25:59;;;;;;;7.90;4.82;;;;;;;10.77;88.02;100851.16;5048656;28;20032;-77
2022/09/26 00:28:25;;;;;;;9.25;5.25;;;;;;;10.74;87.54;100833.25;5046851;28;20052;-77
2022/09/26 00:30:50;;;;;;;7.75;5.07;;;;;;;10.68;88.15;100839.78;5048587;28;20484;-77
2022/09/26 00:33:15;;;;;;;7.60;5.22;;;;;;;10.74;86.86;100828.88;5041155;28;20033;-76
2022/09/26 00:35:51;;;;;;;6.40;4.88;;;;;;;10.76;87.44;100826.16;5041551;28;20017;-76
2022/09/26 00:38:17;;;;;;;7.43;4.75;;;;;;;10.82;87.42;100828.25;5048451;28;20108;-76
2022/09/26 00:40:43;;;;;;;7.38;5.05;;;;;;;10.86;87.08;100824.47;5030934;28;20119;-77
2022/09/26 00:43:28;;;;;;;7.15;3.92;;;;;;;10.91;86.95;100814.53;5048915;28;20517;-76
2022/09/26 00:45:57;;;;;;;8.25;5.13;;;;;;;10.74;87.77;100812.50;5048096;28;20053;-77
2022/09/26 00:48:24;;;;;;;9.15;5.15;;;;;;;10.68;86.99;100800.88;5049787;28;20029;-76
2022/09/26 00:50:50;;;;;;;8.23;4.93;;;;;;;10.62;87.71;100794.41;5046673;28;20025;-77
2022/09/26 00:53:22;;;;;;;8.93;5.32;;;;;;;10.67;88.59;100796.63;5050323;28;20396;-76
2022/09/26 00:56:01;;;;;;;7.15;4.20;;;;;;;10.78;87.79;100793.13;5047842;28;20031;-76
2022/09/26 00:58:37;;;;;;;7.28;4.75;;;;;;;10.83;86.94;100790.97;5050082;28;20033;-76
2022/09/26 01:01:03;;;;;;;8.68;5.60;;;;;;;10.81;87.06;100782.50;5046556;28;20025;-78
2022/09/26 01:03:30;;;;;;;8.73;5.70;;;;;;;10.77;86.79;100775.91;5049364;28;20032;-77
2022/09/26 01:05:56;;;;;;;7.75;5.15;;;;;;;10.69;87.26;100762.78;5050951;28;20025;-76
2022/09/26 01:08:30;;;;;;;7.25;4.13;;;;;;;10.85;87.03;100768.34;5026963;28;20036;-77
2022/09/26 01:10:56;;;;;;;7.68;5.22;;;;;;;10.76;86.75;100758.72;5043450;28;20050;-75
2022/09/26 01:13:22;;;;;;;8.40;5.35;;;;;;;10.83;86.78;100744.28;5037181;28;20028;-76
2022/09/26 01:15:47;;;;;;;9.73;5.47;;;;;;;10.78;86.74;100742.09;5048836;28;20384;-77
2022/09/26 01:18:13;;;;;;;9.10;5.20;;;;;;;10.83;85.97;100739.09;5038921;28;20021;-77
2022/09/26 01:21:01;;;;;;;7.28;4.70;;;;;;;10.84;86.49;100735.56;5041971;28;20396;-77
2022/09/26 01:23:29;;;;;;;;;;;;;;;10.96;85.93;100731.94;4980465;28;20046;-77
2022/09/26 01:26:31;;;;;;;9.05;4.60;;;;;;;10.94;85.67;100726.03;4987080;28;19964;-77
2022/09/26 01:29:39;;;;;;;10.23;5.88;;;;;;;10.90;86.32;100714.28;4986786;28;20046;-76
2022/09/26 01:32:47;;;;;;;8.13;5.28;;;;;;;10.87;85.75;100704.16;4986869;28;20040;-76
2022/09/26 01:35:31;;;;;;;10.18;5.78;;;;;;;10.85;86.33;100700.88;4987540;28;20052;-76
2022/09/26 01:38:11;;;;;;;9.05;5.72;;;;;;;10.80;85.95;100692.66;4986690;28;20117;-76
2022/09/26 01:40:39;;;;;;;10.55;5.05;;;;;;;10.85;85.89;100685.31;4987268;28;20052;-77
2022/09/26 01:43:10;;;;;;;9.30;4.65;;;;;;;10.87;85.31;100678.22;4985484;28;20114;-77
2022/09/26 01:45:49;;;;;;;8.07;5.78;;;;;;;10.68;85.87;100667.75;4991523;28;20080;-77
2022/09/26 01:48:19;;;;;;;9.48;4.75;;;;;;;10.82;85.56;100665.63;5002595;28;20049;-76
2022/09/26 01:50:54;;;;;;;9.30;5.75;;;;;;;10.81;85.21;100663.16;5005959;28;20474;-76
2022/09/26 01:53:40;;;;;;;9.23;5.63;;;;;;;10.79;85.26;100660.72;5006423;28;20046;-77
2022/09/26 01:56:16;;;;;;;10.20;5.95;;;;;;;10.76;84.55;100654.94;5006736;28;20026;-77
2022/09/26 01:58:49;;;;;;;9.50;5.35;;;;;;;10.79;84.96;100646.91;5006481;28;20033;-77
2022/09/26 02:01:17;;;;;;;7.78;4.75;;;;;;;10.79;84.25;100644.31;5000626;28;20040;-77
2022/09/26 02:03:49;;;;;;;8.05;4.50;;;;;;;10.76;85.24;100649.75;5028061;28;20029;-78
2022/09/26 02:06:21;;;;;;;7.72;5.10;;;;;;;10.72;84.29;100630.22;5022050;28;20390;-76
2022/09/26 02:09:00;;;;;;;9.38;5.60;;;;;;;10.73;84.31;100624.91;5029190;28;20067;-75
2022/09/26 02:11:27;;;;;;;6.05;4.03;;;;;;;10.67;84.58;100619.41;5021913;28;20025;-77
2022/09/26 02:13:55;;;;;;;10.23;4.25;;;;;;;10.71;84.10;100618.19;5021512;28;20055;-77
2022/09/26 02:16:29;;;;;;;7.03;4.33;;;;;;;10.73;84.27;100611.13;5028513;28;20112;-76
2022/09/26 02:19:26;;;;;;;7.78;4.85;;;;;;;10.54;84.52;100578.97;5011540;28;20022;-76
2022/09/26 02:21:53;;;;;;;9.65;5.43;;;;;;;10.68;84.17;100605.50;4987592;28;20128;-75
2022/09/26 02:24:20;;;;;;;9.65;5.10;;;;;;;10.59;83.73;100592.34;5013512;28;20025;-77
2022/09/26 02:26:46;;;;;;;7.78;4.75;;;;;;;10.58;84.43;100585.53;5021866;28;20387;-77
2022/09/26 02:29:13;;;;;;;8.25;4.32;;;;;;;10.64;83.95;100590.19;5010728;28;20470;-76
2022/09/26 02:31:47;;;;;;;9.65;4.22;;;;;;;10.67;83.64;100593.47;5019258;28;20053;-78
2022/09/26 02:34:12;;;;;;;10.45;4.80;;;;;;;10.63;83.76;100593.75;5024840;28;20029;-77
2022/09/26 02:36:38;;;;;;;9.73;5.13;;;;;;;10.59;84.24;100576.78;5026969;28;20049;-77
2022/09/26 02:39:03;;;;;;;9.90;5.10;;;;;;;10.56;84.14;100576.25;5028498;28;20026;-76
2022/09/26 02:42:12;;;;;;;8.38;4.63;;;;;;;10.61;84.18;100580.09;5020830;28;20029;-75
2022/09/26 02:44:54;;;;;;;9.02;4.47;;;;;;;10.51;83.81;100563.69;5012145;28;20081;-76
2022/09/26 02:47:38;;;;;;;8.75;3.90;;;;;;;10.64;84.32;100573.81;5026785;28;20055;-76
2022/09/26 02:50:20;;;;;;;8.50;4.25;;;;;;;10.53;84.33;100566.94;5014788;28;20037;-76
2022/09/26 02:53:18;;;;;;;7.28;4.38;;;;;;;10.52;84.00;100570.50;5028047;28;20021;-76
2022/09/26 02:56:09;;;;;;;8.18;3.70;;;;;;;10.60;84.13;100568.06;5001580;28;20041;-76
2022/09/26 02:58:50;;;;;;;9.43;4.43;;;;;;;10.45;84.97;100551.25;5018309;28;20038;-77
2022/09/26 03:01:47;;;;;;;8.10;4.70;;;;;;;10.51;85.25;100553.31;5026816;28;20556;-76
2022/09/26 03:04:21;;;;;;;9.52;4.70;;;;;;;10.55;84.99;100554.69;5009149;28;20025;-76
2022/09/26 03:06:51;;;;;;;6.53;3.67;;;;;;;10.49;85.00;100550.00;5026626;28;20105;-77
2022/09/26 03:09:19;;;;;;;9.95;4.60;;;;;;;10.38;85.87;100547.53;5026824;28;20033;-77
2022/09/26 03:11:46;;;;;;;8.13;4.30;;;;;;;10.41;85.67;100541.25;5026561;28;20516;-77
2022/09/26 03:14:15;;;;;;;9.50;4.55;;;;;;;10.33;86.36;100529.78;5006423;28;20276;-76
2022/09/26 03:16:44;;;;;;;8.95;4.00;;;;;;;10.40;85.91;100527.47;5015867;28;20417;-77
2022/09/26 03:19:29;;;;;;;;;;;;;;;10.52;85.83;100529.00;5007841;28;20017;-76
2022/09/26 03:21:55;;;;;;;7.57;4.30;;;;;;;10.29;86.36;100520.59;5020528;28;19913;-76
2022/09/26 03:24:22;;;;;;;7.28;4.55;;;;;;;10.28;85.98;100511.19;5026448;28;20029;-77
2022/09/26 03:26:49;;;;;;;7.63;4.22;;;;;;;10.31;86.19;100505.72;5009249;28;20029;-76
2022/09/26 03:29:16;;;;;;;7.85;4.43;;;;;;;10.30;86.76;100513.66;5024448;28;20029;-77
2022/09/26 03:31:41;;;;;;;6.90;3.30;;;;;;;10.37;86.73;100509.56;5016729;28;20037;-76
2022/09/26 03:34:06;;;;;;;10.70;4.88;;;;;;;10.26;87.03;100496.72;5009010;28;20469;-76
2022/09/26 03:36:32;;;;;;;7.13;4.25;;;;;;;10.18;86.97;100489.56;5026834;28;20076;-77
2022/09/26 03:38:57;;;;;;;8.38;4.18;;;;;;;10.19;86.50;100490.38;5026258;28;20044;-77
2022/09/26 03:41:23;;;;;;;8.27;3.97;;;;;;;10.17;87.25;100493.13;5027072;28;20025;-77
2022/09/26 03:43:48;;;;;;;8.00;3.83;;;;;;;10.29;86.75;100491.28;5026742;28;20091;-77
2022/09/26 03:46:14;;;;;;;8.20;3.55;;;;;;;10.23;86.03;100496.97;5017075;28;20049;-76
2022/09/26 03:48:40;;;;;;;8.45;4.20;;;;;;;10.20;86.75;100481.66;5023379;28;20022;-77
2022/09/26 03:51:08;;;;;;;9.68;4.45;;;;;;;10.04;87.18;100482.97;5012273;28;20030;-77
2022/09/26 03:53:37;;;;;;;4.65;2.85;;;;;;;10.19;86.11;100480.00;5005740;28;20053;-77
2022/09/26 03:56:06;;;;;;;;;;;;;;;10.27;86.66;100472.47;5017367;28;20049;-77
2022/09/26 03:58:31;;;;;;;7.93;3.60;;;;;;;9.99;87.09;100459.22;5014719;28;19925;-78
2022/09/26 04:01:06;;;;;;;5.45;3.00;;;;;;;10.22;86.08;100464.22;5014484;28;20456;-77
2022/09/26 04:03:33;;;;;;;6.93;3.45;;;;;;;10.19;86.67;100459.28;5014574;28;20108;-77
2022/09/26 04:05:59;;;;;;;9.73;3.70;;;;;;;10.10;86.42;100456.53;5026945;28;20026;-76
2022/09/26 04:08:24;;;;;;;7.88;4.00;;;;;;;10.11;86.43;100442.63;5021938;28;20027;-75
2022/09/26 04:10:49;;;;;;;7.60;2.90;;;;;;;10.19;86.05;100438.56;5025313;28;20112;-77
2022/09/26 04:13:15;;;;;;;7.28;2.90;;;;;;;10.19;85.74;100429.00;5026505;28;20432;-77
2022/09/26 04:15:40;;;;;;;7.72;3.60;;;;;;;10.13;85.90;100418.34;5013261;28;20057;-76
2022/09/26 04:18:06;;;;;;;8.35;3.17;;;;;;;10.11;85.42;100406.34;5019738;28;20767;-76
2022/09/26 04:20:31;;;;;;;6.28;2.80;;;;;;;10.19;85.04;100400.50;5020759;28;20461;-78
2022/09/26 04:22:56;;;;;;;6.80;3.28;;;;;;;10.16;84.76;100393.00;5022083;28;20495;-76
2022/09/26 04:25:22;;;;;;;7.03;3.40;;;;;;;10.18;84.56;100392.88;5008147;28;20486;-77
2022/09/26 04:27:47;;;;;;;8.40;3.28;;;;;;;10.04;85.31;100389.69;5007355;28;20099;-77
2022/09/26 04:30:13;;;;;;;7.05;2.72;;;;;;;10.16;85.52;100381.81;5023268;28;20069;-76
2022/09/26 04:32:38;;;;;;;5.97;2.53;;;;;;;10.17;84.37;100384.28;5008131;28;20052;-77
2022/09/26 04:35:04;;;;;;;8.20;3.20;;;;;;;10.01;84.85;100374.41;5014591;28;20058;-77
2022/09/26 04:37:30;;;;;;;7.20;2.70;;;;;;;10.14;83.77;100373.34;5024609;28;20033;-76
2022/09/26 04:39:56;;;;;;;7.35;3.45;;;;;;;10.07;84.42;100373.88;5025579;28;20036;-76
2022/09/26 04:42:24;;;;;;;8.93;3.25;;;;;;;10.06;84.89;100361.88;5008093;28;20033;-76
2022/09/26 04:44:49;;;;;;;7.70;2.83;;;;;;;10.14;84.84;100358.59;5028122;28;20047;-77
2022/09/26 04:47:14;;;;;;;5.95;2.90;;;;;;;10.08;84.75;100344.41;5044706;28;20568;-77
2022/09/26 04:49:40;;;;;;;5.65;2.97;;;;;;;10.15;84.69;100343.88;5047940;28;20028;-75
2022/09/26 04:52:05;;;;;;;8.73;3.33;;;;;;;10.02;84.10;100329.41;5037441;28;20036;-77
2022/09/26 04:54:30;;;;;;;7.28;3.53;;;;;;;10.05;84.02;100323.16;5031178;28;20040;-77
2022/09/26 04:56:59;;;;;;;7.00;2.80;;;;;;;10.08;84.57;100317.69;5044814;28;20413;-76
2022/09/26 04:59:24;;;;;;;6.78;2.83;;;;;;;10.10;84.58;100311.44;5032928;28;20017;-77
2022/09/26 05:01:49;;;;;;;7.65;3.63;;;;;;;10.07;84.55;100316.88;5035448;28;20025;-77
2022/09/26 05:04:15;;;;;;;7.13;3.75;;;;;;;10.03;84.27;100304.31;5043431;28;20111;-76
2022/09/26 05:06:40;;;;;;;4.60;2.38;;;;;;;10.08;84.71;100302.94;5039514;28;20469;-76
2022/09/26 05:09:06;;;;;;;5.57;3.08;;;;;;;10.06;85.03;100302.28;5039487;28;20457;-76
2022/09/26 05:11:31;;;;;;;8.48;3.50;;;;;;;9.98;85.14;100291.78;5033311;28;20036;-78
2022/09/26 05:13:57;;;;;;;7.18;3.83;;;;;;;9.95;85.13;100281.69;5045921;28;20028;-78
2022/09/26 05:16:22;;;;;;;9.18;3.35;;;;;;;10.00;84.67;100279.50;5046045;28;20024;-76
2022/09/26 05:18:49;;;;;;;6.40;3.70;;;;;;;9.95;84.73;100278.28;5044938;28;20538;-77
2022/09/26 05:21:14;;;;;;;6.60;3.20;;;;;;;9.99;85.14;100288.22;5026353;28;20476;-76
2022/09/26 05:26:43;;;;;;;5.85;3.15;;;;;;;9.93;85.11;100278.41;5046610;28;20103;-77
2022/09/26 05:29:10;;;;;;;6.07;3.05;;;;;;;9.97;84.87;100272.00;5042722;28;20480;-77
2022/09/26 05:31:36;;;;;;;6.90;3.92;;;;;;;9.94;85.61;100264.50;5035285;28;20029;-77
2022/09/26 05:34:06;;;;;;;6.28;2.80;;;;;;;9.97;85.10;100269.41;5049301;28;20028;-78
2022/09/26 05:36:32;;;;;;;6.38;3.42;;;;;;;9.95;84.88;100263.53;5041136;28;20456;-77
2022/09/26 05:38:57;;;;;;;6.85;3.60;;;;;;;9.92;85.03;100250.88;5037970;28;20033;-77
2022/09/26 05:41:27;;;;;;;6.68;3.38;;;;;;;9.99;85.32;100262.31;5048578;28;20058;-77
2022/09/26 05:43:53;;;;;;;7.97;4.38;;;;;;;9.94;85.34;100258.50;5045507;28;20043;-78
2022/09/26 05:46:18;;;;;;;9.25;3.38;;;;;;;9.97;85.24;100253.84;5047227;28;20393;-77
2022/09/26 05:48:44;;;;;;;7.60;3.53;;;;;;;9.96;86.05;100252.22;5042142;28;20489;-76
2022/09/26 05:51:15;;;;;;;8.48;4.28;;;;;;;9.96;86.28;100246.22;5037758;28;20418;-77
2022/09/26 05:53:42;;;;;;;6.53;3.50;;;;;;;9.98;86.30;100258.09;5048572;28;20040;-77
2022/09/26 05:56:09;;;;;;;7.05;3.85;;;;;;;9.93;86.20;100231.78;5045181;28;20120;-77
2022/09/26 05:58:37;;;;;;;7.57;3.55;;;;;;;9.97;86.57;100238.31;5036776;28;20110;-78
2022/09/26 06:01:10;;;;;;;7.23;3.20;;;;;;;9.97;85.92;100233.13;5042292;28;20476;-78
2022/09/26 06:03:37;;;;;;;8.10;3.75;;;;;;;9.94;86.99;100233.41;5046889;28;20025;-77
2022/09/26 06:06:07;;;;;;;8.18;3.92;;;;;;;9.91;86.78;100218.13;5034553;28;20402;-78
2022/09/26 06:08:33;;;;;;;9.35;4.57;;;;;;;9.85;87.59;100208.31;5047057;28;20028;-78
2022/09/26 06:11:11;;;;;;;8.10;3.88;;;;;;;9.85;87.10;100216.91;5046932;28;20029;-77
2022/09/26 06:13:36;;;;;;;8.30;3.58;;;;;;;9.86;87.44;100209.94;5048497;28;20444;-79
2022/09/26 06:16:06;;;;;;;6.57;3.45;;;;;;;9.85;87.38;100197.94;5044946;28;20520;-78
2022/09/26 06:18:35;;;;;;;9.95;4.28;;;;;;;9.80;87.83;100189.78;5040859;28;20064;-78
2022/09/26 06:21:02;;;;;;;8.68;4.15;;;;;;;9.81;87.34;100178.47;5044784;28;20028;-78
2022/09/26 06:23:28;;;;;;;7.95;3.90;;;;;;;9.82;87.70;100161.97;5042943;28;20470;-77
2022/09/26 06:25:53;;;;;;;9.02;3.17;;;;;;;9.81;87.57;100150.00;5045075;28;20037;-78
2022/09/26 06:28:18;;;;;;;6.82;3.33;;;;;;;9.86;87.25;100158.13;5035310;28;20068;-78
2022/09/26 06:30:44;;;;;;;8.20;4.18;;;;;;;9.89;88.26;100152.69;5035828;28;20052;-78
2022/09/26 06:33:10;;;;;;;7.13;4.15;;;;;;;9.89;88.28;100147.53;5043694;28;20024;-78
2022/09/26 06:35:35;;;;;;;6.85;3.17;;;;;;;9.92;88.20;100146.41;5039593;28;20488;-78
2022/09/26 06:38:01;;;;;;;9.13;4.30;;;;;;;9.86;88.85;100137.41;5048425;28;20036;-78
2022/09/26 06:40:27;;;;;;;8.32;3.65;;;;;;;9.87;87.79;100133.91;5044527;28;20017;-78
2022/09/26 06:42:54;;;;;;;8.95;4.65;;;;;;;9.92;89.21;100138.66;5046301;28;20045;-77
2022/09/26 06:45:20;;;;;;;9.63;3.80;;;;;;;9.94;88.03;100132.38;5046193;28;20473;-78
2022/09/26 06:47:46;;;;;;;10.60;4.88;;;;;;;9.93;88.49;100124.75;5047404;28;20033;-78
2022/09/26 06:50:11;;;;;;;11.80;4.40;;;;;;;9.89;88.31;100103.50;5042211;28;20454;-77
2022/09/26 06:52:37;;;;;;;7.80;3.80;;;;;;;9.88;88.24;100109.63;5035104;28;20131;-77
2022/09/26 06:55:05;;;;;;;7.35;3.13;;;;;;;9.93;87.78;100099.69;5035313;28;20016;-78
2022/09/26 06:57:39;;;;;;;10.30;3.88;;;;;;;9.95;88.36;100097.75;5038005;28;20056;-78
2022/09/26 07:00:09;;;;;;;6.30;2.92;;;;;;;9.94;87.48;100088.34;5029070;28;20506;-78
2022/09/26 07:02:35;;;;;;;8.13;4.07;;;;;;;9.89;87.87;100080.19;5028876;28;20033;-78
2022/09/26 07:05:02;;;;;;;7.07;3.63;;;;;;;9.88;88.15;100083.72;5042500;28;20562;-78
2022/09/26 07:07:29;;;;;;;7.97;4.30;;;;;;;9.91;87.92;100073.06;5040197;28;20036;-78
2022/09/26 07:09:55;;;;;;;8.70;3.22;;;;;;;9.96;87.74;100078.66;5042509;28;20056;-77
2022/09/26 07:12:21;;;;;;;7.15;3.38;;;;;;;9.96;88.14;100060.53;5039454;28;20032;-78
2022/09/26 07:14:46;;;;;;;8.60;4.22;;;;;;;9.98;88.13;100069.00;5046932;28;20021;-78
2022/09/26 07:17:14;;;;;;;7.35;3.85;;;;;;;10.02;87.80;100052.19;5036807;28;20025;-77
2022/09/26 07:19:40;;;;;;;9.45;3.53;;;;;;;10.08;87.73;100054.22;5032144;28;20079;-78
2022/09/26 07:22:06;;;;;;;8.75;3.42;;;;;;;10.05;87.52;100038.97;5016012;28;20377;-78
2022/09/26 07:24:33;;;;;;;7.22;3.47;;;;;;;10.04;87.75;100026.97;5046709;28;20040;-78
2022/09/26 07:26:58;;;;;;;7.28;3.13;;;;;;;10.10;87.24;100046.31;5036967;28;20048;-78
2022/09/26 07:29:23;;;;;;;8.57;4.15;;;;;;;10.08;87.17;100033.50;5045476;28;20385;-77
2022/09/26 07:31:49;;;;;;;6.15;3.58;;;;;;;10.15;86.73;100038.09;5025727;28;20362;-77
2022/09/26 07:34:14;;;;;;;6.22;2.80;;;;;;;10.13;86.76;100040.84;5046567;28;20519;-79
2022/09/26 07:36:39;;;;;;;8.95;2.97;;;;;;;10.20;87.20;100041.91;5036824;28;20025;-78
2022/09/26 07:39:05;;;;;;;8.13;2.63;;;;;;;10.24;86.48;100038.09;5046361;28;20025;-78
2022/09/26 07:41:30;;;;;;;7.22;3.28;;;;;;;10.19;86.47;100024.72;5046227;28;20035;-78
2022/09/26 07:43:57;;;;;;;7.20;2.88;;;;;;;10.24;86.75;100029.53;5039323;28;20052;-79
2022/09/26 07:51:54;;;;;;;8.45;3.72;;;;;;;10.34;86.92;100027.72;5030008;28;20056;-78
2022/09/26 07:54:20;;;;;;;5.63;2.78;;;;;;;10.38;86.27;100013.50;5044924;28;20041;-77
2022/09/26 07:56:45;;;;;;;5.88;2.50;;;;;;;10.43;86.11;100026.84;5039099;28;20025;-78
2022/09/26 07:59:11;;;;;;;6.03;2.72;;;;;;;10.35;86.16;100016.38;5046964;28;20043;-78
2022/09/26 08:01:37;;;;;;;7.75;3.42;;;;;;;10.39;86.17;100020.31;5046059;28;20645;-78
2022/09/26 08:04:05;;;;;;;8.65;3.50;;;;;;;10.42;86.57;100014.84;5035083;28;20029;-79
2022/09/26 08:06:32;;;;;;;5.72;2.42;;;;;;;10.48;85.63;100006.47;5030376;28;20091;-78
2022/09/26 08:08:57;;;;;;;6.38;2.80;;;;;;;10.44;86.79;99997.38;5040915;28;20035;-78
2022/09/26 08:11:23;;;;;;;6.38;3.35;;;;;;;10.44;86.45;99997.38;5027574;28;20029;-79
2022/09/26 08:13:49;;;;;;;8.57;3.22;;;;;;;10.40;86.12;99985.66;5047058;28;20366;-78
2022/09/26 08:16:22;;;;;;;5.82;3.22;;;;;;;10.42;86.79;99994.09;5027061;28;20025;-78
2022/09/26 08:18:52;;;;;;;7.40;3.22;;;;;;;10.45;86.53;99996.41;5039520;28;20027;-78
2022/09/26 08:21:19;;;;;;;7.15;2.95;;;;;;;10.47;86.17;99985.91;5042301;28;20073;-77
2022/09/26 08:23:45;;;;;;;6.53;3.25;;;;;;;10.51;86.32;99982.88;5045991;28;20057;-78
2022/09/26 08:26:11;;;;;;;8.13;3.50;;;;;;;10.52;86.43;99984.50;5037334;28;20400;-77
2022/09/26 08:28:37;;;;;;;8.77;3.30;;;;;;;10.53;85.88;99990.50;5045059;28;20029;-78
2022/09/26 08:31:03;;;;;;;7.05;2.72;;;;;;;10.59;86.64;99995.91;5048800;28;20055;-77
2022/09/26 08:33:34;;;;;;;6.70;3.30;;;;;;;10.54;86.73;99987.75;5049056;28;20105;-78
2022/09/26 08:36:05;;;;;;;8.05;3.47;;;;;;;10.62;86.44;99990.44;5046541;28;20028;-78
2022/09/26 08:38:31;;;;;;;7.95;2.95;;;;;;;10.58;86.65;99973.53;5048985;28;20119;-78
2022/09/26 08:41:31;;;;;;;6.57;3.13;;;;;;;10.64;87.06;99978.16;5049897;28;20048;-78
2022/09/26 08:44:10;;;;;;;8.40;3.53;;;;;;;10.69;86.68;99979.50;5043133;28;20389;-77
2022/09/26 08:47:03;;;;;;;5.93;2.40;;;;;;;10.75;86.22;99978.91;5047906;28;20115;-78
2022/09/26 08:49:39;;;;;;;7.32;3.35;;;;;;;10.70;87.47;99968.16;5047649;28;20060;-78
2022/09/26 08:52:25;;;;;;;5.78;3.63;;;;;;;10.74;87.10;99982.47;5046962;28;20060;-77
2022/09/26 08:54:53;;;;;;;5.97;3.53;;;;;;;10.71;87.02;99962.00;5046585;28;20545;-79
2022/09/26 08:57:54;;;;;;;6.90;2.92;;;;;;;10.81;86.84;99973.13;5040510;28;20033;-78
2022/09/26 09:00:25;;;;;;;7.35;3.33;;;;;;;10.77;86.41;99953.63;5047940;28;20027;-78
2022/09/26 09:03:08;;;;;;;8.27;3.85;;;;;;;10.84;86.77;99952.09;5049015;28;20032;-78
2022/09/26 09:05:41;;;;;;;7.32;3.35;;;;;;;10.77;87.31;99940.66;5038349;28;20495;-78
2022/09/26 09:08:20;;;;;;;10.27;3.50;;;;;;;10.84;87.47;99952.09;5031287;28;20380;-78
2022/09/26 09:11:15;;;;;;;8.07;3.28;;;;;;;10.94;86.94;99942.44;5031525;28;20473;-78
2022/09/26 09:14:07;;;;;;;6.93;3.00;;;;;;;10.94;87.20;99926.88;5029452;28;20083;-78
2022/09/26 09:16:43;;;;;;;7.55;3.03;;;;;;;10.95;87.46;99928.50;5047905;28;20024;-78
2022/09/26 09:19:21;;;;;;;10.80;3.30;;;;;;;10.98;88.57;99928.22;5049015;28;20035;-78
2022/09/26 09:21:52;;;;;;;8.55;3.30;;;;;;;10.98;89.38;99915.22;5049442;28;20652;-78
2022/09/26 09:24:34;;;;;;;8.63;3.55;;;;;;;10.99;89.79;99914.25;5030288;28;20032;-78
2022/09/26 09:27:11;;;;;;;7.72;3.65;;;;;;;11.00;90.11;99918.47;5044347;28;20040;-78
2022/09/26 09:29:36;;;;;;;9.05;3.35;;;;;;;10.99;89.70;99903.88;5041260;28;20041;-79
2022/09/26 09:32:03;;;;;;;10.18;3.45;;;;;;;10.91;90.10;99901.25;5046872;28;20103;-78
2022/09/26 09:34:37;;;;;;;9.23;3.75;;;;;;;10.97;90.35;99900.63;5048603;28;20045;-80
2022/09/26 09:37:17;;;;;;;8.15;3.78;;;;;;;11.00;90.74;99910.69;5048604;28;20029;-78
2022/09/26 09:39:46;;;;;;;7.97;3.63;;;;;;;11.03;90.00;99900.03;5031572;28;20051;-77
2022/09/26 09:42:18;;;;;;;;;;;;;;;11.11;89.38;99894.91;5044498;28;20026;-78
2022/09/26 09:44:47;;;;;;;7.20;2.85;;;;;;;11.09;90.34;99893.44;5049282;28;19909;-78
2022/09/26 09:47:15;;;;;;;8.88;3.72;;;;;;;11.06;90.58;99894.53;5030277;28;20053;-78
2022/09/26 09:49:45;;;;;;;7.47;3.22;;;;;;;11.09;90.75;99883.84;5042098;28;20056;-78
2022/09/26 09:52:42;;;;;;;7.80;3.83;;;;;;;11.10;91.49;99876.88;5046844;28;20051;-78
2022/09/26 09:55:30;;;;;;;8.93;4.05;;;;;;;11.09;92.42;99872.66;5046872;28;20033;-79
2022/09/26 09:58:17;;;;;;;8.60;3.72;;;;;;;11.05;92.68;99863.53;5027710;28;20432;-78
2022/09/26 10:00:50;;;;;;;8.45;4.10;;;;;;;10.97;93.20;99859.13;5040314;28;20044;-79
2022/09/26 10:03:31;;;;;;;7.43;3.92;;;;;;;11.04;93.99;99870.53;5041644;28;20055;-78
2022/09/26 10:06:00;;;;;;;9.55;4.03;;;;;;;10.95;93.26;99848.06;5048506;28;20047;-79
2022/09/26 10:08:34;;;;;;;9.85;4.57;;;;;;;10.96;93.55;99844.53;5045092;28;20028;-79
2022/09/26 10:11:27;;;;;;;7.93;4.10;;;;;;;10.98;93.69;99850.38;5045587;28;20065;-78
2022/09/26 10:13:55;;;;;;;8.73;4.00;;;;;;;10.99;93.40;99839.03;5045924;28;20044;-79
2022/09/26 10:16:21;;;;;;;7.18;3.55;;;;;;;11.00;93.47;99837.25;5044607;28;20024;-79
2022/09/26 10:19:02;;;;;;;9.02;4.10;;;;;;;10.96;93.70;99839.34;5044595;28;20509;-78
2022/09/26 10:21:40;;;;;;;7.90;4.40;;;;;;;10.90;94.81;99832.16;5047681;28;20021;-78
2022/09/26 10:24:39;;;;;;;9.65;4.10;;;;;;;10.93;94.89;99831.84;5045065;28;20120;-78
2022/09/26 10:27:23;;;;;;;8.90;4.07;;;;;;;10.93;95.48;99825.84;5045370;28;20376;-78
2022/09/26 10:30:00;;;;;;;8.18;3.42;;;;;;;10.90;94.73;99819.19;5042737;28;20065;-79
2022/09/26 10:32:26;;;;;;;8.00;3.65;;;;;;;10.91;94.39;99823.41;5047041;28;20035;-79
2022/09/26 10:35:03;;;;;;;9.80;3.80;;;;;;;10.91;94.99;99818.22;5047913;28;20029;-78
2022/09/26 10:37:29;;;;;;;7.97;3.90;;;;;;;10.92;95.23;99816.44;5028698;28;20033;-79
2022/09/26 10:42:42;;;;;;;8.65;3.95;;;;;;;10.90;95.29;99811.41;5045838;28;20040;-78
2022/09/26 10:45:14;;;;;;;8.40;3.90;;;;;;;10.91;95.39;99813.03;5047129;28;20059;-78
2022/09/26 10:47:45;;;;;;;7.60;3.80;;;;;;;10.87;95.66;99809.09;5018842;28;20503;-78
2022/09/26 10:50:26;;;;;;;9.52;3.88;;;;;;;10.91;96.41;99797.47;5020336;28;20067;-79
2022/09/26 10:53:04;;;;;;;7.88;4.05;;;;;;;10.90;96.82;99795.84;5014532;28;20420;-78
2022/09/26 10:55:37;;;;;;;9.45;3.90;;;;;;;10.86;96.81;99794.50;5046711;28;20027;-78
2022/09/26 10:58:08;;;;;;;8.43;4.18;;;;;;;10.95;96.66;99800.56;5029926;28;20100;-78
2022/09/26 11:00:36;;;;;;;9.70;3.97;;;;;;;10.98;96.87;99793.28;5009093;28;20026;-77
2022/09/26 11:03:14;;;;;;;6.63;3.13;;;;;;;11.04;97.45;99797.88;5026346;28;20040;-77
2022/09/26 11:05:58;;;;;;;6.88;3.35;;;;;;;11.04;97.60;99790.09;5032495;28;20025;-78
2022/09/26 11:08:31;;;;;;;7.63;3.85;;;;;;;10.99;98.21;99794.91;5018026;28;20033;-78
2022/09/26 11:11:00;;;;;;;7.75;3.88;;;;;;;10.98;98.01;99787.28;5011484;28;20030;-79
2022/09/26 11:13:31;;;;;;;7.97;4.25;;;;;;;10.87;98.12;99777.97;5013109;28;20056;-78
2022/09/26 11:16:06;;;;;;;9.38;4.63;;;;;;;10.91;99.74;99787.09;5022344;28;20477;-77
2022/09/26 11:18:41;;;;;;;6.47;4.20;;;;;;;10.90;99.06;99780.28;5007166;28;20033;-78
2022/09/26 11:21:28;;;;;;;6.97;3.67;;;;;;;10.97;99.15;99783.88;5015237;28;20025;-78
2022/09/26 11:24:36;;;;;;;7.88;3.70;;;;;;;10.93;98.59;99794.72;5026849;28;20113;-78
2022/09/26 11:27:10;;;;;;;6.10;3.03;;;;;;;10.91;98.37;99774.13;4928390;29;20054;-78
2022/09/26 11:29:45;;;;;;;7.03;3.80;;;;;;;10.91;98.83;99784.50;4936699;29;20171;-78
2022/09/26 11:32:24;;;;;;;8.18;3.70;;;;;;;10.87;98.91;99775.38;4932431;29;20123;-78
2022/09/26 11:34:53;;;;;;;6.70;3.33;;;;;;;10.87;99.95;99776.19;4927372;29;20044;-78
2022/09/26 11:37:29;;;;;;;4.35;3.10;;;;;;;10.88;99.60;99777.00;4922054;29;20044;-79
2022/09/26 11:40:12;;;;;;;5.55;3.13;;;;;;;10.86;99.47;99753.00;4942354;29;20278;-78
2022/09/26 11:42:58;;;;;;;6.10;3.40;;;;;;;10.91;99.41;99771.53;4936709;29;20063;-78
2022/09/26 11:45:59;;;;;;;4.45;3.10;;;;;;;10.94;100.00;99775.59;4922757;29;20563;-78
2022/09/26 11:48:50;;;;;;;6.43;4.00;;;;;;;10.86;100.00;99763.38;4948298;28;20034;-79
2022/09/26 11:51:22;;;;;;;6.45;3.33;;;;;;;10.93;99.79;99759.22;4945615;28;20408;-77
2022/09/26 11:54:01;;;;;;;6.90;3.75;;;;;;;10.86;100.00;99753.00;4949986;28;20118;-79
2022/09/26 11:56:49;;;;;;;5.63;3.50;;;;;;;10.92;100.00;99762.78;4952232;29;20757;-77
2022/09/26 11:59:35;;;;;;;5.65;3.47;;;;;;;10.91;100.00;99758.56;4952421;29;20138;-78
2022/09/26 12:02:15;;;;;;;6.93;3.47;;;;;;;10.93;100.00;99755.81;4947422;28;20483;-78